Time,TemperatureF,DewpointF,PressureIn,WindDirection,WindDirectionDegrees,WindSpeedMPH,WindSpeedGustMPH,Humidity,HourlyPrecipIn,Conditions,Clouds,dailyrainin,SolarRadiationWatts/m^2,SoftwareType,DateUTC
2013-04-21 00:03:00,41.0,31.0,30.60,SW,225,1.0,5.0,67,0.00,,,0.00,0.000000,,2013-04-21 04:03:00,
2013-04-21 00:33:00,39.0,31.0,30.61,North,358,1.0,3.0,72,0.00,,,0.00,0.000000,,2013-04-21 04:33:00,
2013-04-21 00:43:00,39.0,31.0,30.61,North,358,1.0,3.0,72,0.00,,,0.00,0.000000,,2013-04-21 04:43:00,
2013-04-21 00:53:00,39.0,31.0,30.61,North,358,1.0,3.0,72,0.00,,,0.00,0.000000,,2013-04-21 04:53:00,
2013-04-21 01:02:00,39.0,31.0,30.61,North,358,1.0,3.0,72,0.00,,,0.00,0.000000,,2013-04-21 05:02:00,
2013-04-21 01:32:00,35.0,29.0,30.61,NE,50,1.0,3.0,79,0.00,,,0.00,0.000000,,2013-04-21 05:32:00,
2013-04-21 01:43:00,35.0,29.0,30.61,NE,50,1.0,3.0,79,0.00,,,0.00,0.000000,,2013-04-21 05:43:00,
2013-04-21 01:52:00,35.0,29.0,30.61,NE,50,1.0,3.0,79,0.00,,,0.00,0.000000,,2013-04-21 05:52:00,
2013-04-21 02:01:00,35.0,29.0,30.61,NE,50,1.0,3.0,79,0.00,,,0.00,0.000000,,2013-04-21 06:01:00,
2013-04-21 02:32:00,35.0,31.0,30.62,SSE,154,1.0,2.0,85,0.00,,,0.00,0.000000,,2013-04-21 06:32:00,
2013-04-21 02:42:00,35.0,31.0,30.62,SSE,154,1.0,2.0,85,0.00,,,0.00,0.000000,,2013-04-21 06:42:00,
2013-04-21 02:52:00,35.0,31.0,30.62,SSE,154,1.0,2.0,85,0.00,,,0.00,0.000000,,2013-04-21 06:52:00,
2013-04-21 03:02:00,35.0,31.0,30.62,SSE,154,1.0,2.0,85,0.00,,,0.00,0.000000,,2013-04-21 07:02:00,
2013-04-21 03:32:00,34.0,31.0,30.61,East,89,1.0,3.0,89,0.00,,,0.00,0.000000,,2013-04-21 07:32:00,
2013-04-21 03:42:00,34.0,31.0,30.61,East,89,1.0,3.0,89,0.00,,,0.00,0.000000,,2013-04-21 07:42:00,
2013-04-21 03:52:00,34.0,31.0,30.61,East,89,1.0,3.0,89,0.00,,,0.00,0.000000,,2013-04-21 07:52:00,
2013-04-21 04:01:00,34.0,31.0,30.61,East,89,1.0,3.0,89,0.00,,,0.00,0.000000,,2013-04-21 08:01:00,
2013-04-21 04:32:00,32.0,30.0,30.63,SE,141,1.0,2.0,91,0.00,,,0.00,0.000000,,2013-04-21 08:32:00,
2013-04-21 04:42:00,32.0,30.0,30.63,SE,141,1.0,2.0,91,0.00,,,0.00,0.000000,,2013-04-21 08:42:00,
2013-04-21 04:52:00,32.0,30.0,30.63,SE,141,1.0,2.0,91,0.00,,,0.00,0.000000,,2013-04-21 08:52:00,
2013-04-21 05:02:00,32.0,30.0,30.63,SE,141,1.0,2.0,91,0.00,,,0.00,0.000000,,2013-04-21 09:02:00,
2013-04-21 05:33:00,32.0,30.0,30.64,East,93,1.0,3.0,92,0.00,,,0.00,0.000000,,2013-04-21 09:33:00,
2013-04-21 05:43:00,32.0,30.0,30.64,East,93,1.0,3.0,92,0.00,,,0.00,0.000000,,2013-04-21 09:43:00,
2013-04-21 05:53:00,32.0,30.0,30.64,East,93,1.0,3.0,92,0.00,,,0.00,0.000000,,2013-04-21 09:53:00,
2013-04-21 06:03:00,32.0,30.0,30.64,East,93,1.0,3.0,92,0.00,,,0.00,0.000000,,2013-04-21 10:03:00,
2013-04-21 06:33:00,33.0,32.0,30.66,West,263,1.0,3.0,97,0.00,,,0.00,0.000000,,2013-04-21 10:33:00,
2013-04-21 06:42:00,33.0,32.0,30.66,West,263,1.0,3.0,97,0.00,,,0.00,0.000000,,2013-04-21 10:42:00,
2013-04-21 06:52:00,33.0,32.0,30.66,West,263,1.0,3.0,97,0.00,,,0.00,0.000000,,2013-04-21 10:52:00,
2013-04-21 07:03:00,33.0,32.0,30.66,West,263,1.0,3.0,97,0.00,,,0.00,0.000000,,2013-04-21 11:03:00,
2013-04-21 07:34:00,32.0,32.0,30.69,ESE,114,2.0,3.0,98,0.00,,,0.00,1.000000,,2013-04-21 11:34:00,
2013-04-21 07:42:00,32.0,32.0,30.69,ESE,114,2.0,3.0,98,0.00,,,0.00,1.000000,,2013-04-21 11:42:00,
2013-04-21 07:52:00,32.0,32.0,30.69,ESE,114,2.0,3.0,98,0.00,,,0.00,1.000000,,2013-04-21 11:52:00,
2013-04-21 08:03:00,32.0,32.0,30.69,ESE,114,2.0,3.0,98,0.00,,,0.00,1.000000,,2013-04-21 12:03:00,
2013-04-21 08:32:00,36.0,31.0,30.71,SW,225,1.0,6.0,83,0.00,,,0.00,69.000000,,2013-04-21 12:32:00,
2013-04-21 08:42:00,36.0,31.0,30.71,SW,225,1.0,6.0,83,0.00,,,0.00,69.000000,,2013-04-21 12:42:00,
2013-04-21 08:52:00,36.0,31.0,30.71,SW,225,1.0,6.0,83,0.00,,,0.00,69.000000,,2013-04-21 12:52:00,
2013-04-21 09:01:00,36.0,31.0,30.71,SW,225,1.0,6.0,83,0.00,,,0.00,69.000000,,2013-04-21 13:01:00,
2013-04-21 09:32:00,43.0,36.0,30.72,SSW,192,1.0,4.0,75,0.00,,,0.00,239.000000,,2013-04-21 13:32:00,
2013-04-21 09:42:00,43.0,36.0,30.72,SSW,192,1.0,4.0,75,0.00,,,0.00,239.000000,,2013-04-21 13:42:00,
2013-04-21 09:52:00,43.0,36.0,30.72,SSW,192,1.0,4.0,75,0.00,,,0.00,239.000000,,2013-04-21 13:52:00,
2013-04-21 10:02:00,43.0,36.0,30.72,SSW,192,1.0,4.0,75,0.00,,,0.00,239.000000,,2013-04-21 14:02:00,
2013-04-21 10:32:00,45.0,35.0,30.73,NW,318,1.0,5.0,69,0.00,,,0.00,283.000000,,2013-04-21 14:32:00,
2013-04-21 10:42:00,45.0,35.0,30.73,NW,318,1.0,5.0,69,0.00,,,0.00,283.000000,,2013-04-21 14:42:00,
2013-04-21 10:52:00,45.0,35.0,30.73,NW,318,1.0,5.0,69,0.00,,,0.00,283.000000,,2013-04-21 14:52:00,
2013-04-21 11:02:00,45.0,35.0,30.73,NW,318,1.0,5.0,69,0.00,,,0.00,283.000000,,2013-04-21 15:02:00,
2013-04-21 11:33:00,55.0,31.0,30.73,North,6,2.0,7.0,39,0.00,,,0.00,568.000000,,2013-04-21 15:33:00,
2013-04-21 11:43:00,55.0,31.0,30.73,North,6,2.0,7.0,39,0.00,,,0.00,568.000000,,2013-04-21 15:43:00,
2013-04-21 11:53:00,55.0,31.0,30.73,North,6,2.0,7.0,39,0.00,,,0.00,568.000000,,2013-04-21 15:53:00,
2013-04-21 12:03:00,55.0,31.0,30.73,North,6,2.0,7.0,39,0.00,,,0.00,568.000000,,2013-04-21 16:03:00,
2013-04-21 12:33:00,59.0,31.0,30.71,South,182,4.0,13.0,34,0.00,,,0.00,943.000000,,2013-04-21 16:33:00,
2013-04-21 12:42:00,59.0,31.0,30.71,South,182,4.0,13.0,34,0.00,,,0.00,943.000000,,2013-04-21 16:42:00,
2013-04-21 12:53:00,59.0,31.0,30.71,South,182,4.0,13.0,34,0.00,,,0.00,943.000000,,2013-04-21 16:53:00,
2013-04-21 13:02:00,59.0,31.0,30.71,South,182,4.0,13.0,34,0.00,,,0.00,943.000000,,2013-04-21 17:02:00,
2013-04-21 13:32:00,61.0,29.0,30.68,ESE,114,4.0,16.0,29,0.00,,,0.00,968.000000,,2013-04-21 17:32:00,
2013-04-21 13:42:00,61.0,29.0,30.68,ESE,114,4.0,16.0,29,0.00,,,0.00,968.000000,,2013-04-21 17:42:00,
2013-04-21 13:52:00,61.0,29.0,30.68,ESE,114,4.0,16.0,29,0.00,,,0.00,968.000000,,2013-04-21 17:52:00,
2013-04-21 14:02:00,61.0,29.0,30.68,ESE,114,4.0,16.0,29,0.00,,,0.00,968.000000,,2013-04-21 18:02:00,
2013-04-21 14:33:00,62.0,29.0,30.66,SSE,158,6.0,15.0,29,0.00,,,0.00,1180.000000,,2013-04-21 18:33:00,
2013-04-21 14:42:00,62.0,29.0,30.66,SSE,158,6.0,15.0,29,0.00,,,0.00,1180.000000,,2013-04-21 18:42:00,
2013-04-21 14:52:00,62.0,29.0,30.66,SSE,158,6.0,15.0,29,0.00,,,0.00,1180.000000,,2013-04-21 18:52:00,
2013-04-21 15:02:00,62.0,29.0,30.66,SSE,158,6.0,15.0,29,0.00,,,0.00,1180.000000,,2013-04-21 19:02:00,
2013-04-21 15:32:00,64.0,28.0,30.65,SSE,155,5.0,14.0,26,0.00,,,0.00,1016.000000,,2013-04-21 19:32:00,
2013-04-21 15:43:00,64.0,28.0,30.65,SSE,155,5.0,14.0,26,0.00,,,0.00,1016.000000,,2013-04-21 19:43:00,
2013-04-21 15:52:00,64.0,28.0,30.65,SSE,155,5.0,14.0,26,0.00,,,0.00,1016.000000,,2013-04-21 19:52:00,
2013-04-21 16:02:00,64.0,28.0,30.65,SSE,155,5.0,14.0,26,0.00,,,0.00,1016.000000,,2013-04-21 20:02:00,
2013-04-21 16:32:00,65.0,29.0,30.62,South,190,6.0,17.0,26,0.00,,,0.00,980.000000,,2013-04-21 20:32:00,
2013-04-21 16:42:00,65.0,29.0,30.62,South,190,6.0,17.0,26,0.00,,,0.00,980.000000,,2013-04-21 20:42:00,
2013-04-21 16:52:00,65.0,29.0,30.62,South,190,6.0,17.0,26,0.00,,,0.00,980.000000,,2013-04-21 20:52:00,
2013-04-21 17:02:00,65.0,29.0,30.62,South,190,6.0,17.0,26,0.00,,,0.00,980.000000,,2013-04-21 21:02:00,
2013-04-21 17:33:00,63.0,29.0,30.61,SSE,157,6.0,18.0,27,0.00,,,0.00,827.000000,,2013-04-21 21:33:00,
2013-04-21 17:43:00,63.0,29.0,30.61,SSE,157,6.0,18.0,27,0.00,,,0.00,827.000000,,2013-04-21 21:43:00,
2013-04-21 17:53:00,63.0,29.0,30.61,SSE,157,6.0,18.0,27,0.00,,,0.00,827.000000,,2013-04-21 21:53:00,
2013-04-21 18:03:00,63.0,29.0,30.61,SSE,157,6.0,18.0,27,0.00,,,0.00,827.000000,,2013-04-21 22:03:00,
2013-04-21 18:33:00,60.0,28.0,30.60,South,170,9.0,18.0,29,0.00,,,0.00,543.000000,,2013-04-21 22:33:00,
2013-04-21 18:43:00,60.0,28.0,30.60,South,170,9.0,18.0,29,0.00,,,0.00,543.000000,,2013-04-21 22:43:00,
2013-04-21 18:53:00,60.0,28.0,30.60,South,170,9.0,18.0,29,0.00,,,0.00,543.000000,,2013-04-21 22:53:00,
2013-04-21 19:02:00,60.0,28.0,30.60,South,170,9.0,18.0,29,0.00,,,0.00,543.000000,,2013-04-21 23:02:00,
2013-04-21 19:32:00,58.0,29.0,30.61,SE,139,10.0,23.0,33,0.00,,,0.00,351.000000,,2013-04-21 23:32:00,
2013-04-21 19:43:00,58.0,29.0,30.61,SE,139,10.0,23.0,33,0.00,,,0.00,351.000000,,2013-04-21 23:43:00,
2013-04-21 19:52:00,58.0,29.0,30.61,SE,139,10.0,23.0,33,0.00,,,0.00,351.000000,,2013-04-21 23:52:00,
2013-04-21 20:01:00,58.0,29.0,30.61,SE,139,10.0,23.0,33,0.00,,,0.00,351.000000,,2013-04-22 00:01:00,
2013-04-21 20:32:00,55.0,31.0,30.64,SE,145,10.0,23.0,39,0.00,,,-99.99,92.000000,,2013-04-22 00:32:00,
2013-04-21 20:42:00,55.0,31.0,30.64,SE,145,10.0,23.0,39,0.00,,,-99.99,92.000000,,2013-04-22 00:42:00,
2013-04-21 20:52:00,55.0,31.0,30.64,SE,145,10.0,23.0,39,0.00,,,-99.99,92.000000,,2013-04-22 00:52:00,
2013-04-21 21:01:00,55.0,31.0,30.64,SE,145,10.0,23.0,39,0.00,,,-99.99,92.000000,,2013-04-22 01:01:00,
2013-04-21 21:32:00,51.0,31.0,30.67,SSE,152,8.0,18.0,47,0.00,,,0.00,1.000000,,2013-04-22 01:32:00,
2013-04-21 21:42:00,51.0,31.0,30.67,SSE,152,8.0,18.0,47,0.00,,,0.00,1.000000,,2013-04-22 01:42:00,
2013-04-21 21:52:00,51.0,31.0,30.67,SSE,152,8.0,18.0,47,0.00,,,0.00,1.000000,,2013-04-22 01:52:00,
2013-04-21 22:02:00,51.0,31.0,30.67,SSE,152,8.0,18.0,47,0.00,,,0.00,1.000000,,2013-04-22 02:02:00,
2013-04-21 22:32:00,51.0,34.0,30.69,SE,139,6.0,16.0,51,0.00,,,0.00,0.000000,,2013-04-22 02:32:00,
2013-04-21 22:42:00,51.0,34.0,30.69,SE,139,6.0,16.0,51,0.00,,,0.00,0.000000,,2013-04-22 02:42:00,
2013-04-21 22:52:00,51.0,34.0,30.69,SE,139,6.0,16.0,51,0.00,,,0.00,0.000000,,2013-04-22 02:52:00,
2013-04-21 23:02:00,51.0,34.0,30.69,SE,139,6.0,16.0,51,0.00,,,0.00,0.000000,,2013-04-22 03:02:00,
2013-04-21 23:33:00,48.0,33.0,30.70,SSE,156,4.0,11.0,56,0.00,,,0.00,0.000000,,2013-04-22 03:33:00,
2013-04-21 23:43:00,48.0,33.0,30.70,SSE,156,4.0,11.0,56,0.00,,,0.00,0.000000,,2013-04-22 03:43:00,
2013-04-21 23:53:00,48.0,33.0,30.70,SSE,156,4.0,11.0,56,0.00,,,0.00,0.000000,,2013-04-22 03:53:00,